Terminal Aerodrome Forecast
Issued by NWS

Home | Current Version | Previous Version | Text Only | Print | Product List | Glossary On
Versions: 1 2 3 4 5 6 7 8 9 10 11 12 13 14 15
000
FTUS43 KOAX 052221 AAA
TAFBFF
TAF AMD
KBFF 052221Z 0522/0618 01015G28KT 4SM TSRA BKN090CB
      TEMPO 0522/0524 VRB25G40KT 3/4SM TSRAGS OVC025CB
     FM060000 01020G30KT 3SM -TSRA SCT020 BKN030CB
     FM060400 35016G23KT 4SM -RA BKN025 OVC050
     FM061400 33009KT P6SM SCT025 BKN100=

USA.gov is the U.S. government's official web portal to all federal, state and local government web resources and services.